AirNav   Air Wisconsin pilot careers
 
 744 users online  

98G Sebewaing Airport
Sebewaing, Michigan, USA

GOING TO SEBEWAING?


FAA INFORMATION EFFECTIVE 29 MARCH 2018

Location

FAA Identifier: 98G
Lat/Long: 43-43-46.2332N / 083-27-49.0208W
43-43.770553N / 083-27.817013W
43.7295092 / -83.4636169
(estimated)
Elevation: 584 ft. / 178 m (estimated)
Variation: 06W (1985)
Time zone: UTC -4 (UTC -5 during Standard Time)
Zip code: 48759

Airport Operations

Airport use: Open to the public
Activation date: 09/1948
Control tower: no
ARTCC: CLEVELAND CENTER
FSS: LANSING FLIGHT SERVICE STATION
NOTAMs facility: LAN (NOTAM-D service available)
Attendance: IREG
FOR FUEL, CALL 989-550-1145.
Wind indicator: lighted
Segmented circle: yes
Lights: DUSK-DAWN. ACTVT LIRL RY 18/36 - CTAF.

Airport Communications

CTAF/UNICOM: 122.8
WX AWOS-3 at CFS (16 nm S): 119.275 (989-672-4182)

Nearby radio navigation aids

VOR radial/distance  VOR name  Freq  Var
MBSr069/29.2SAGINAW VOR/DME112.9003W

Airport Services

Fuel available: 100LL
Parking: tiedowns
Airframe service: MINOR
BY PRIOR ARNGMT 989-553-1519.
Powerplant service: MINOR
BY PRIOR ARNGMT 989-553-1519.
Bottled oxygen: NONE
Bulk oxygen: NONE

Runway Information

Runway 18/36

Dimensions: 2178 x 50 ft. / 664 x 15 m
Surface: asphalt, in good condition
Weight bearing capacity: 
Single wheel: 10.0
Runway edge lights: low intensity
RUNWAY 18  RUNWAY 36
Latitude: 43-43.950000N43-43.593333N
Longitude: 083-27.853333W083-27.800000W
Elevation: 584.0 ft.584.0 ft.
Traffic pattern: leftleft
Runway heading: 180 magnetic, 174 true000 magnetic, 354 true
Displaced threshold: no326 ft.
Markings: basic, in good conditionbasic, in good condition
Obstructions: 83 ft. trees, 2000 ft. from runway, 20:1 slope to clear26 ft. rr, 278 ft. from runway, 133 ft. right of centerline, 3:1 slope to clear
APCH RATIO 20:1 AT DSPLCD THLD.

Runway 6/24

Dimensions: 2060 x 130 ft. / 628 x 40 m
Surface: turf, in good condition
Runway edge markings: 06/24 MKD WITH 3 FT CONES.
RUNWAY 6  RUNWAY 24
Latitude: 43-43.683333N43-43.855000N
Longitude: 083-28.006667W083-27.603333W
Elevation: 584.0 ft.584.0 ft.
Traffic pattern: leftleft
Obstructions: 10 ft. tree, 204 ft. from runway, 60 ft. left of centerline, 20:1 slope to clear26 ft. rr, 70 ft. from runway, 132 ft. left of centerline, 2:1 slope to clear
APCH RATIO 20:1 AT DSPLCD THLD, +60 FT TREES 1221 FT DST.

Airport Ownership and Management from official FAA records

Ownership: Publicly-owned
Owner: SEBEWAING TOWNSHIP
14 SHARPSTEEN ST
SEBEWAING, MI 48759
Phone 989-883-2120
Manager: DENNIS MONTEI
P O BOX 687, 14 SHARPSTEEN ST
SEBEWAING, MI 48759
Phone 989-550-1145
DOUGLAS ELSTON: ASST AMGR - PHONE 989-883-3787.

Airport Operational Statistics

Aircraft based on the field: 5
Single engine airplanes: 5
    
Aircraft operations: avg 38/week *
50% transient general aviation
50% local general aviation
* for 12-month period ending 31 December 2015

Additional Remarks

RY 06/24 NOT PLOWED WINTER MONTHS; MAY BE WET OR UNUSBL DURING SPRING THAW.
SEAGULLS & DEER ON & INVOF RYS.
FOR IFR CLEARANCE CTC CLEVELAND ARTCC (ZOB) 127.7/307.8 OR CALL ZOB 440-774-0386.

Instrument Procedures

There are no published instrument procedures at 98G.

Some nearby airports with instrument procedures:

KCFS - Tuscola Area Airport (16 nm S)
KBAX - Huron County Memorial Airport (21 nm E)
3CM - James Clements Municipal Airport (22 nm SW)
KHYX - Saginaw County H W Browne Airport (25 nm SW)
KMBS - MBS International Airport (29 nm SW)
 
Loc | Ops | Rwys | IFR | FBO | Links
Com | Nav | Svcs | Stats | Notes

AirNav Hotels Sweepstakes
 
Area around 98G (Sebewaing Airport)
 
Road maps at: MapQuest Bing Google
 
Aerial photo
WARNING: Photo may not be current or correct
Aerial photo of 98G (Sebewaing Airport)
Photo by Marge Beaver
Photography Plus
1571 Goody Rd.
Muskegon, MI 49441
Photo taken 16-Oct-2010
looking north.

Do you have a better or more recent aerial photo of Sebewaing Airport that you would like to share? If so, please send us your photo.

 
Sectional chart

 
Airport distance calculator
Flying to Sebewaing Airport? Find the distance to fly.

From to 98G

Sunrise and sunset
Times for 24-Apr-2018
 Local
(UTC-4)
 Zulu
(UTC)
Morning civil twilight06:0710:07
Sunrise06:3710:37
Sunset20:2700:27
Evening civil twilight20:5700:57

Current date and time
Zulu (UTC)  24-Apr-2018 11:58:30
Local (UTC-4)  24-Apr-2018 07:58:30
 
METAR
KCFS 
16nm S 
241135Z AUTO 00000KT 10SM BKN075 OVC090 11/07 A3014 RMK AO2 T01100073
KBAX 
21nm E 
241155Z AUTO 13003KT 10SM OVC085 13/07 A3015 RMK AO2 T01260070 10136 20087
KHYX 
25nm SW 
241155Z AUTO 15004KT 10SM OVC090 12/07 A3013 RMK AO2
KMBS 
29nm SW 
241153Z 14004KT 10SM OVC095 12/08 A3013 RMK AO2 SLP205 T01170083 10122 20078 53001
TAF
KMBS 
29nm SW 
240524Z 2406/2506 09007KT P6SM SCT070 OVC150 FM240900 15004KT P6SM -SHRA OVC060 FM241500 12008KT 4SM -RA BR OVC030 FM241800 10008KT 4SM -RA BR OVC015 FM242300 08006KT 3SM -RA BR OVC008
NOTAMs
Click for the latest NOTAMs
NOTAMs are issued by the DoD/FAA and will open in a separate window not controlled by AirNav.

 

 
 

FBO, Fuel Providers, and Aircraft Ground Support

  
 Business Name 
 
 Contact 
 
 Services / Description 
 
Fuel Prices
 
Comments
  
Sebewaing Airport 989-883-2120
no information available

If you are affiliated with Sebewaing Airport and would like to show here your services, contact info, web link, logo, and more, click here
100LL
FS $4.45 
 Updated 20-Jul-2017
 
   write
FS=Full service
Update Fuel Prices
 

Would you like to see your business listed on this page?

 If your business provides an interesting product or service to pilots, flight crews, aircraft, or users of the Sebewaing Airport, you should consider listing it here.  To start the listing process, click on the button below
 
Add a business
 

Other Pages about Sebewaing Airport

Page from the Michigan Airport Directory (PDF)
 
Update a link
 
Copyright © AirNav, LLC. All rights reserved. Privacy Policy  Contact